createdAt,value
2023-11-24T00:01:28.417Z,81.04
2023-11-24T00:04:00.516Z,80.85
2023-11-24T00:06:29.721Z,80.78
2023-11-24T00:08:57.834Z,81.38
2023-11-24T00:11:27.522Z,81.13
2023-11-24T00:13:55.758Z,80.41
2023-11-24T00:16:24.177Z,80.78
2023-11-24T00:18:52.834Z,80.61
2023-11-24T00:21:21.300Z,80.67
2023-11-24T00:23:49.583Z,80.89
2023-11-24T00:26:22.352Z,81.04
2023-11-24T00:28:50.419Z,80.77
2023-11-24T00:31:18.623Z,80.81
2023-11-24T00:33:48.612Z,80.78
2023-11-24T00:36:17.636Z,80.52
2023-11-24T00:38:45.835Z,80.45
2023-11-24T00:41:14.689Z,80.37
2023-11-24T00:43:43.215Z,80.67
2023-11-24T00:46:12.567Z,80.51
2023-11-24T00:48:41.354Z,80.58
2023-11-24T00:51:09.807Z,80.27
2023-11-24T00:53:38.379Z,80.10
2023-11-24T00:56:06.828Z,80.33
2023-11-24T00:58:34.796Z,80.05
2023-11-24T01:01:05.216Z,80.50
2023-11-24T01:03:33.404Z,80.40
2023-11-24T01:06:01.621Z,80.54
2023-11-24T01:08:29.704Z,80.23
2023-11-24T01:10:59.056Z,80.12
2023-11-24T01:13:28.082Z,79.91
2023-11-24T01:15:56.187Z,79.49
2023-11-24T01:18:26.864Z,79.99
2023-11-24T01:20:55.068Z,80.10
2023-11-24T01:23:23.686Z,80.11
2023-11-24T01:25:51.617Z,79.98
2023-11-24T01:28:19.657Z,80.42
2023-11-24T01:30:53.284Z,80.48
2023-11-24T01:33:22.479Z,80.44
2023-11-24T01:35:54.996Z,80.12
2023-11-24T01:38:25.519Z,79.94
2023-11-24T01:40:53.711Z,80.35
2023-11-24T01:43:21.794Z,80.45
2023-11-24T01:45:49.966Z,80.08
2023-11-24T01:48:18.863Z,79.99
2023-11-24T01:50:47.566Z,80.09
2023-11-24T01:53:15.932Z,79.87
2023-11-24T01:55:44.195Z,80.08
2023-11-24T01:58:12.241Z,79.71
2023-11-24T02:00:40.852Z,79.69
2023-11-24T02:03:11.998Z,79.59
2023-11-24T02:05:40.157Z,79.72
2023-11-24T02:08:08.218Z,79.95
2023-11-24T02:10:37.151Z,79.32
2023-11-24T02:13:05.388Z,79.36
2023-11-24T02:15:33.599Z,79.76
2023-11-24T02:18:01.755Z,79.23
2023-11-24T02:20:34.895Z,79.35
2023-11-24T02:23:02.917Z,79.77
2023-11-24T02:25:31.161Z,79.71
2023-11-24T02:27:59.310Z,79.56
2023-11-24T02:30:27.585Z,79.57
2023-11-24T02:32:55.676Z,79.85
2023-11-24T02:35:23.929Z,79.63
2023-11-24T02:37:52.212Z,79.66
2023-11-24T02:40:20.273Z,79.76
2023-11-24T02:42:50.865Z,79.88
2023-11-24T02:45:18.903Z,80.01
2023-11-24T02:47:46.990Z,79.87
2023-11-24T02:50:15.050Z,79.81
2023-11-24T02:52:43.042Z,79.67
2023-11-24T02:55:12.199Z,80.05
2023-11-24T02:57:40.157Z,80.43
2023-11-24T03:00:09.535Z,80.64
2023-11-24T03:02:37.811Z,80.74
2023-11-24T03:05:06.124Z,80.60
2023-11-24T03:07:37.125Z,80.60
2023-11-24T03:10:07.613Z,80.32
2023-11-24T03:12:35.955Z,80.18
2023-11-24T03:15:04.480Z,80.26
2023-11-24T03:17:33.506Z,80.14
2023-11-24T03:20:04.602Z,80.54
2023-11-24T03:22:32.582Z,80.95
2023-11-24T03:25:00.563Z,80.78
2023-11-24T03:27:29.223Z,80.94
2023-11-24T03:29:57.410Z,80.82
2023-11-24T03:32:28.982Z,81.18
2023-11-24T03:34:59.630Z,81.19
2023-11-24T03:37:28.122Z,81.06
2023-11-24T03:39:56.318Z,81.02
2023-11-24T03:42:24.516Z,81.13
2023-11-24T03:44:52.561Z,80.78
2023-11-24T03:47:20.739Z,80.78
2023-11-24T03:49:49.050Z,80.89
2023-11-24T03:52:17.058Z,80.93
2023-11-24T03:54:45.497Z,81.09
2023-11-24T03:57:13.594Z,81.09
2023-11-24T03:59:41.826Z,81.19
2023-11-24T04:02:09.910Z,81.23
2023-11-24T04:04:38.239Z,81.03
2023-11-24T04:07:06.322Z,81.21
2023-11-24T04:09:34.415Z,81.02
2023-11-24T04:12:02.625Z,81.25
2023-11-24T04:14:30.894Z,81.21
2023-11-24T04:17:01.392Z,81.44
2023-11-24T04:19:29.674Z,81.29
2023-11-24T04:21:57.828Z,81.06
2023-11-24T04:24:25.820Z,81.24
2023-11-24T04:26:53.733Z,81.26
2023-11-24T04:29:22.973Z,81.12
2023-11-24T04:31:51.105Z,81.22
2023-11-24T04:34:19.421Z,81.33
2023-11-24T04:36:47.525Z,81.26
2023-11-24T04:39:16.801Z,81.44
2023-11-24T04:41:47.957Z,81.48
2023-11-24T04:44:16.558Z,81.48
2023-11-24T04:46:44.640Z,81.58
2023-11-24T04:49:15.763Z,81.70
2023-11-24T04:51:43.898Z,81.70
2023-11-24T04:54:14.023Z,81.66
2023-11-24T04:56:42.105Z,81.44
2023-11-24T04:59:10.392Z,81.37
2023-11-24T05:01:38.537Z,81.09
2023-11-24T05:04:06.938Z,80.88
2023-11-24T05:06:34.980Z,80.99
2023-11-24T05:09:02.990Z,80.82
2023-11-24T05:11:31.001Z,81.02
2023-11-24T05:13:59.074Z,80.98
2023-11-24T05:16:28.175Z,80.54
2023-11-24T05:18:56.362Z,80.53
2023-11-24T05:21:24.565Z,80.53
2023-11-24T05:23:52.555Z,80.58
2023-11-24T05:26:23.925Z,80.29
2023-11-24T05:28:51.877Z,80.02
2023-11-24T05:31:20.021Z,79.43
2023-11-24T05:33:49.505Z,79.33
2023-11-24T05:36:17.678Z,79.21
2023-11-24T05:38:51.105Z,78.99
2023-11-24T05:41:19.325Z,78.98
2023-11-24T05:43:47.239Z,78.84
2023-11-24T05:46:15.538Z,78.78
2023-11-24T05:48:46.970Z,78.29
2023-11-24T05:51:15.279Z,78.33
2023-11-24T05:53:43.289Z,78.46
2023-11-24T05:56:11.369Z,78.33
2023-11-24T05:58:39.358Z,78.25
2023-11-24T06:01:07.651Z,78.04
2023-11-24T06:03:36.091Z,78.10
2023-11-24T06:06:04.435Z,77.77
2023-11-24T06:08:32.481Z,77.98
2023-11-24T06:11:00.751Z,78.04
2023-11-24T06:13:28.682Z,78.28
2023-11-24T06:16:00.669Z,78.27
2023-11-24T06:18:29.304Z,77.98
2023-11-24T06:20:57.539Z,78.08
2023-11-24T06:23:25.727Z,77.95
2023-11-24T06:25:53.858Z,78.07
2023-11-24T06:28:22.504Z,77.89
2023-11-24T06:30:50.600Z,77.74
2023-11-24T06:33:18.581Z,77.65
2023-11-24T06:35:46.931Z,78.04
2023-11-24T06:38:16.033Z,78.03
2023-11-24T06:40:45.123Z,77.96
2023-11-24T06:43:13.418Z,78.05
2023-11-24T06:45:41.551Z,78.03
2023-11-24T06:48:09.742Z,78.18
2023-11-24T06:50:38.794Z,77.96
2023-11-24T06:53:07.153Z,78.11
2023-11-24T06:55:35.462Z,77.98
2023-11-24T06:58:05.789Z,78.55
2023-11-24T07:00:34.092Z,78.80
2023-11-24T07:03:02.243Z,78.61
2023-11-24T07:05:30.378Z,78.79
2023-11-24T07:07:59.417Z,78.81
2023-11-24T07:10:27.856Z,78.84
2023-11-24T07:12:56.098Z,78.78
2023-11-24T07:15:24.050Z,78.67
2023-11-24T07:17:52.319Z,78.92
2023-11-24T07:20:20.455Z,78.68
2023-11-24T07:22:50.528Z,79.31
2023-11-24T07:25:19.564Z,79.13
2023-11-24T07:27:48.272Z,79.36
2023-11-24T07:30:16.947Z,79.39
2023-11-24T07:32:44.990Z,79.38
2023-11-24T07:35:15.583Z,79.32
2023-11-24T07:37:44.242Z,79.49
2023-11-24T07:40:16.256Z,79.61
2023-11-24T07:42:45.771Z,79.72
2023-11-24T07:45:14.213Z,79.89
2023-11-24T07:47:42.181Z,79.72
2023-11-24T07:50:10.613Z,79.80
2023-11-24T07:52:38.705Z,79.61
2023-11-24T07:55:07.454Z,79.81
2023-11-24T07:57:36.859Z,79.54
2023-11-24T08:00:06.341Z,79.03
2023-11-24T08:02:34.308Z,78.99
2023-11-24T08:05:02.517Z,78.98
2023-11-24T08:07:30.638Z,78.73
2023-11-24T08:09:58.677Z,78.82
2023-11-24T08:12:27.041Z,79.27
2023-11-24T08:14:56.860Z,79.59
2023-11-24T08:17:24.861Z,79.79
2023-11-24T08:19:53.736Z,79.94
2023-11-24T08:22:21.671Z,80.09
2023-11-24T08:24:49.612Z,79.82
2023-11-24T08:27:19.906Z,80.12
2023-11-24T08:29:48.129Z,80.10
2023-11-24T08:32:17.281Z,80.38
2023-11-24T08:34:45.389Z,80.26
2023-11-24T08:37:13.636Z,80.32
2023-11-24T08:39:42.064Z,80.51
2023-11-24T08:42:11.533Z,80.55
2023-11-24T08:44:40.558Z,80.52
2023-11-24T08:47:09.044Z,80.69
2023-11-24T08:49:37.652Z,80.89
2023-11-24T08:52:05.782Z,80.78
2023-11-24T08:54:33.984Z,80.89
2023-11-24T08:57:05.550Z,80.86
2023-11-24T08:59:33.621Z,80.86
2023-11-24T09:02:01.743Z,80.75
2023-11-24T09:04:32.333Z,81.08
2023-11-24T09:07:00.510Z,80.56
2023-11-24T09:09:29.941Z,80.53
2023-11-24T09:11:58.384Z,80.41
2023-11-24T09:14:26.748Z,80.36
2023-11-24T09:16:54.973Z,80.29
2023-11-24T09:19:23.311Z,79.87
2023-11-24T09:21:52.075Z,79.85
2023-11-24T09:24:20.205Z,79.76
2023-11-24T09:26:48.314Z,79.21
2023-11-24T09:29:16.442Z,78.78
2023-11-24T09:31:44.619Z,78.69
2023-11-24T09:34:13.663Z,78.29
2023-11-24T09:36:43.588Z,78.59
2023-11-24T09:39:11.658Z,78.44
2023-11-24T09:41:41.315Z,78.34
2023-11-24T09:44:14.222Z,77.99
2023-11-24T09:46:51.511Z,77.72
2023-11-24T09:49:21.701Z,77.37
2023-11-24T09:51:50.171Z,77.62
2023-11-24T09:54:22.938Z,77.30
2023-11-24T09:56:51.589Z,77.66
2023-11-24T09:59:20.118Z,77.34
2023-11-24T10:01:49.458Z,77.29
2023-11-24T10:04:17.679Z,77.55
2023-11-24T10:06:46.862Z,76.81
2023-11-24T10:09:23.248Z,77.28
2023-11-24T10:11:51.871Z,76.92
2023-11-24T10:14:23.230Z,77.10
2023-11-24T10:16:51.780Z,76.57
2023-11-24T10:19:22.930Z,75.87
2023-11-24T10:21:55.139Z,75.97
2023-11-24T10:24:26.636Z,76.61
2023-11-24T10:26:54.887Z,76.11
2023-11-24T10:29:28.651Z,76.32
2023-11-24T10:31:57.412Z,76.08
2023-11-24T10:34:27.527Z,75.66
2023-11-24T10:36:56.638Z,75.49
2023-11-24T10:39:26.990Z,74.60
2023-11-24T10:41:56.045Z,75.25
2023-11-24T10:44:26.586Z,75.40
2023-11-24T10:46:58.040Z,75.30
2023-11-24T10:49:36.335Z,75.15
2023-11-24T10:52:11.904Z,75.37
2023-11-24T10:54:43.418Z,75.41
2023-11-24T10:57:11.548Z,75.27
2023-11-24T10:59:40.731Z,75.13
2023-11-24T11:02:14.421Z,75.46
2023-11-24T11:05:01.679Z,75.96
2023-11-24T11:08:05.338Z,76.12
2023-11-24T11:10:46.137Z,76.29
2023-11-24T11:13:15.152Z,76.41
2023-11-24T11:15:44.274Z,76.42
2023-11-24T11:18:16.108Z,76.35
2023-11-24T11:20:46.118Z,75.90
2023-11-24T11:23:19.280Z,75.72
2023-11-24T11:25:48.632Z,75.31
2023-11-24T11:28:25.389Z,75.50
2023-11-24T11:30:59.154Z,74.84
2023-11-24T11:33:28.706Z,74.76
2023-11-24T11:36:06.886Z,75.14
2023-11-24T11:38:45.345Z,75.63
2023-11-24T11:41:43.074Z,76.21
2023-11-24T11:44:27.367Z,76.59
2023-11-24T11:47:23.027Z,76.86
2023-11-24T11:50:01.845Z,76.82
2023-11-24T11:52:32.551Z,77.05
2023-11-24T11:55:02.131Z,76.83
2023-11-24T11:57:30.883Z,77.03
2023-11-24T11:59:58.981Z,77.11
2023-11-24T12:02:28.286Z,77.31
2023-11-24T12:04:56.741Z,77.52
2023-11-24T12:07:27.489Z,77.73
2023-11-24T12:09:55.925Z,78.22
2023-11-24T12:12:24.605Z,78.08
2023-11-24T12:14:56.173Z,78.35
2023-11-24T12:17:25.765Z,78.20
2023-11-24T12:19:55.210Z,78.21
2023-11-24T12:22:24.886Z,78.47
2023-11-24T12:24:53.706Z,78.71
2023-11-24T12:27:22.602Z,78.59
2023-11-24T12:29:53.158Z,78.30
2023-11-24T12:32:25.263Z,78.18
2023-11-24T12:34:53.323Z,77.85
2023-11-24T12:37:21.782Z,77.83
2023-11-24T12:39:49.992Z,77.93
2023-11-24T12:42:18.187Z,77.97
2023-11-24T12:44:49.609Z,77.61
2023-11-24T12:47:41.622Z,77.96
2023-11-24T12:50:14.992Z,77.74
2023-11-24T12:52:46.323Z,77.53
2023-11-24T12:55:14.942Z,77.56
2023-11-24T12:57:46.801Z,77.47
2023-11-24T13:00:16.865Z,77.26
2023-11-24T13:02:46.329Z,77.33
2023-11-24T13:05:18.209Z,77.15
2023-11-24T13:07:48.561Z,77.30
2023-11-24T13:13:07.948Z,77.85
2023-11-24T13:15:36.161Z,77.97
2023-11-24T13:18:05.622Z,78.42
2023-11-24T13:20:36.764Z,78.67
2023-11-24T13:23:05.881Z,78.50
2023-11-24T13:25:37.808Z,78.23
2023-11-24T13:28:07.345Z,77.92
2023-11-24T13:30:35.587Z,77.58
2023-11-24T13:33:04.064Z,77.56
2023-11-24T13:35:32.758Z,77.69
2023-11-24T13:38:01.117Z,77.66
2023-11-24T13:40:32.661Z,77.81
2023-11-24T13:43:01.396Z,77.92
2023-11-24T13:45:29.515Z,77.93
2023-11-24T13:48:00.385Z,78.13
2023-11-24T13:50:30.638Z,78.07
2023-11-24T13:52:58.790Z,78.00
2023-11-24T13:55:35.800Z,78.40
2023-11-24T13:58:04.857Z,78.60
2023-11-24T14:00:33.339Z,78.23
2023-11-24T14:03:03.303Z,78.31
2023-11-24T14:05:31.978Z,78.09
2023-11-24T14:08:00.204Z,78.30
2023-11-24T14:10:28.556Z,78.10
2023-11-24T14:12:57.885Z,77.82
2023-11-24T14:15:26.095Z,77.70
2023-11-24T14:17:54.339Z,77.73
2023-11-24T14:20:22.680Z,77.96
2023-11-24T14:22:53.415Z,78.36
2023-11-24T14:25:21.839Z,78.36
2023-11-24T14:27:50.253Z,78.63
2023-11-24T14:30:19.814Z,78.34
2023-11-24T14:32:48.779Z,77.92
2023-11-24T14:35:17.121Z,78.59
2023-11-24T14:37:45.579Z,78.76
2023-11-24T14:40:20.478Z,78.72
2023-11-24T14:42:53.495Z,78.47
2023-11-24T14:45:22.492Z,78.68
2023-11-24T14:47:51.934Z,79.08
2023-11-24T14:50:29.001Z,78.56
2023-11-24T14:52:59.252Z,79.12
2023-11-24T14:55:30.211Z,78.85
2023-11-24T14:58:00.653Z,78.65
2023-11-24T15:00:35.163Z,78.68
2023-11-24T15:03:08.498Z,78.65
2023-11-24T15:05:40.969Z,78.77
2023-11-24T15:08:11.766Z,78.82
2023-11-24T15:10:45.002Z,78.81
2023-11-24T15:13:22.565Z,78.66
2023-11-24T15:15:51.800Z,78.79
2023-11-24T15:18:21.894Z,78.67
2023-11-24T15:20:54.763Z,78.97
2023-11-24T15:23:25.189Z,78.79
2023-11-24T15:25:54.239Z,78.84
2023-11-24T15:28:27.628Z,78.70
2023-11-24T15:30:57.794Z,78.64
2023-11-24T15:33:32.164Z,78.83
2023-11-24T15:36:01.912Z,78.76
2023-11-24T15:38:30.136Z,78.85
2023-11-24T15:40:58.628Z,78.68
2023-11-24T15:43:27.072Z,78.69
2023-11-24T15:45:57.132Z,78.65
2023-11-24T15:48:27.349Z,78.63
2023-11-24T15:50:57.792Z,78.51
2023-11-24T15:53:26.055Z,78.45
2023-11-24T15:55:54.739Z,78.18
2023-11-24T15:58:26.724Z,77.92
2023-11-24T16:00:58.247Z,78.34
2023-11-24T16:03:26.669Z,78.40
2023-11-24T16:05:56.338Z,78.01
2023-11-24T16:08:33.591Z,78.59
2023-11-24T16:11:10.865Z,78.62
2023-11-24T16:13:42.884Z,78.59
2023-11-24T16:16:12.245Z,78.14
2023-11-24T16:18:42.719Z,78.15
2023-11-24T16:21:11.387Z,78.20
2023-11-24T16:23:39.664Z,78.36
2023-11-24T16:26:08.305Z,78.35
2023-11-24T16:28:36.720Z,78.74
2023-11-24T16:31:05.929Z,78.98
2023-11-24T16:33:34.615Z,78.48
2023-11-24T16:36:02.882Z,79.01
2023-11-24T16:38:32.161Z,79.23
2023-11-24T16:41:05.089Z,78.87
2023-11-24T16:43:34.545Z,78.86
2023-11-24T16:46:08.195Z,78.80
2023-11-24T16:48:40.886Z,78.74
2023-11-24T16:51:09.161Z,79.23
2023-11-24T16:53:37.669Z,78.94
2023-11-24T16:56:06.060Z,79.16
2023-11-24T16:58:35.374Z,79.02
2023-11-24T17:01:04.075Z,78.89
2023-11-24T17:03:35.172Z,78.96
2023-11-24T17:06:05.295Z,78.71
2023-11-24T17:08:33.775Z,78.80
2023-11-24T17:11:08.280Z,78.37
2023-11-24T17:13:38.277Z,78.32
2023-11-24T17:16:07.984Z,78.69
2023-11-24T17:18:37.889Z,78.29
2023-11-24T17:21:06.331Z,78.59
2023-11-24T17:23:36.522Z,78.41
2023-11-24T17:26:05.172Z,78.43
2023-11-24T17:28:33.753Z,78.45
2023-11-24T17:31:05.273Z,78.12
2023-11-24T17:33:34.288Z,78.33
2023-11-24T17:36:05.120Z,78.18
2023-11-24T17:38:33.223Z,77.97
2023-11-24T17:41:02.822Z,77.92
2023-11-24T17:43:31.296Z,78.23
2023-11-24T17:45:59.884Z,78.14
2023-11-24T17:48:28.375Z,78.02
2023-11-24T17:50:56.743Z,77.67
2023-11-24T17:53:24.928Z,77.85
2023-11-24T17:55:53.304Z,77.81
2023-11-24T17:58:22.109Z,77.87
2023-11-24T18:00:50.207Z,78.12
2023-11-24T18:03:18.684Z,77.90
2023-11-24T18:05:46.821Z,77.81
2023-11-24T18:08:17.151Z,77.92
2023-11-24T18:10:45.220Z,77.75
2023-11-24T18:13:13.357Z,77.63
2023-11-24T18:15:41.666Z,78.01
2023-11-24T18:18:10.025Z,78.21
2023-11-24T18:20:38.224Z,77.82
2023-11-24T18:23:06.803Z,77.83
2023-11-24T18:25:40.005Z,77.47
2023-11-24T18:28:09.631Z,77.28
2023-11-24T18:30:39.166Z,77.33
2023-11-24T18:33:09.905Z,77.56
2023-11-24T18:35:39.970Z,77.73
2023-11-24T18:38:09.875Z,77.85
2023-11-24T18:40:38.596Z,77.85
2023-11-24T18:43:07.094Z,77.54
2023-11-24T18:45:35.741Z,77.78
2023-11-24T18:48:04.813Z,77.47
2023-11-24T18:50:33.713Z,77.26
2023-11-24T18:53:01.815Z,77.30
2023-11-24T18:55:30.247Z,77.56
2023-11-24T18:57:59.428Z,77.69
2023-11-24T19:00:28.531Z,77.41
2023-11-24T19:02:56.746Z,77.38
2023-11-24T19:05:25.019Z,77.39
2023-11-24T19:07:55.851Z,77.26
2023-11-24T19:10:23.982Z,77.22
2023-11-24T19:12:52.722Z,77.46
2023-11-24T19:15:21.426Z,77.83
2023-11-24T19:17:50.044Z,77.44
2023-11-24T19:20:19.252Z,77.54
2023-11-24T19:22:48.547Z,77.61
2023-11-24T19:25:16.808Z,77.65
2023-11-24T19:27:45.012Z,77.86
2023-11-24T19:30:13.393Z,77.75
2023-11-24T19:32:41.495Z,77.67
2023-11-24T19:35:10.126Z,77.66
2023-11-24T19:37:38.379Z,77.70
2023-11-24T19:40:07.442Z,78.00
2023-11-24T19:42:35.669Z,78.05
2023-11-24T19:45:04.176Z,78.13
2023-11-24T19:47:32.236Z,78.62
2023-11-24T19:50:00.336Z,78.50
2023-11-24T19:52:28.366Z,78.64
2023-11-24T19:54:56.473Z,78.56
2023-11-24T19:57:24.542Z,78.80
2023-11-24T19:59:56.117Z,78.93
2023-11-24T20:02:24.301Z,79.01
2023-11-24T20:04:52.916Z,79.16
2023-11-24T20:07:22.918Z,78.92
2023-11-24T20:09:53.908Z,79.11
2023-11-24T20:12:22.276Z,78.93
2023-11-24T20:14:50.531Z,79.00
2023-11-24T20:17:19.050Z,79.21
2023-11-24T20:19:47.278Z,78.94
2023-11-24T20:22:15.666Z,79.08
2023-11-24T20:24:44.294Z,79.02
2023-11-24T20:27:13.290Z,79.13
2023-11-24T20:29:41.493Z,79.59
2023-11-24T20:32:10.694Z,79.82
2023-11-24T20:34:39.025Z,79.74
2023-11-24T20:37:07.361Z,79.72
2023-11-24T20:39:35.521Z,79.72
2023-11-24T20:42:04.455Z,79.79
2023-11-24T20:44:34.313Z,79.86
2023-11-24T20:47:02.912Z,79.98
2023-11-24T20:49:31.125Z,79.66
2023-11-24T20:51:59.465Z,79.59
2023-11-24T20:54:27.659Z,79.85
2023-11-24T20:56:55.999Z,79.85
2023-11-24T20:59:24.572Z,79.86
2023-11-24T21:01:52.994Z,79.82
2023-11-24T21:04:21.769Z,79.78
2023-11-24T21:06:50.019Z,79.54
2023-11-24T21:09:18.771Z,79.40
2023-11-24T21:11:47.001Z,79.31
2023-11-24T21:14:15.142Z,79.21
2023-11-24T21:16:43.634Z,79.38
2023-11-24T21:19:12.904Z,79.34
2023-11-24T21:21:41.248Z,78.85
2023-11-24T21:24:10.249Z,78.82
2023-11-24T21:26:38.489Z,79.30
2023-11-24T21:29:07.528Z,79.20
2023-11-24T21:31:36.654Z,78.91
2023-11-24T21:34:05.051Z,78.91
2023-11-24T21:36:33.309Z,78.97
2023-11-24T21:39:03.944Z,78.92
2023-11-24T21:41:35.016Z,79.20
2023-11-24T21:44:03.528Z,78.91
2023-11-24T21:46:31.796Z,78.66
2023-11-24T21:49:00.061Z,78.68
2023-11-24T21:51:28.817Z,78.54
2023-11-24T21:53:57.172Z,78.41
2023-11-24T21:56:26.609Z,78.36
2023-11-24T21:58:54.929Z,78.65
2023-11-24T22:01:24.669Z,78.45
2023-11-24T22:03:53.680Z,79.18
2023-11-24T22:06:26.132Z,78.87
2023-11-24T22:08:55.593Z,78.77
2023-11-24T22:11:23.689Z,78.90
2023-11-24T22:13:51.791Z,78.76
2023-11-24T22:16:22.130Z,78.73
2023-11-24T22:18:51.620Z,79.03
2023-11-24T22:21:20.249Z,79.01
2023-11-24T22:23:48.528Z,78.75
2023-11-24T22:26:24.873Z,78.56
2023-11-24T22:28:54.508Z,78.40
2023-11-24T22:31:23.170Z,78.90
2023-11-24T22:33:51.667Z,79.22
2023-11-24T22:36:21.438Z,79.18
2023-11-24T22:38:50.694Z,79.32
2023-11-24T22:41:24.382Z,79.32
2023-11-24T22:43:54.067Z,79.55
2023-11-24T22:46:24.496Z,79.09
2023-11-24T22:48:53.658Z,79.15
2023-11-24T22:51:29.773Z,79.30
2023-11-24T22:53:58.050Z,78.97
2023-11-24T22:56:27.889Z,79.02
2023-11-24T22:58:57.604Z,79.04
2023-11-24T23:01:27.444Z,79.00
2023-11-24T23:04:01.247Z,79.28
2023-11-24T23:06:29.651Z,79.54
2023-11-24T23:08:58.038Z,79.35
2023-11-24T23:11:28.659Z,79.20
2023-11-24T23:13:58.634Z,79.60
2023-11-24T23:16:28.452Z,79.67
2023-11-24T23:18:58.579Z,79.62
2023-11-24T23:21:26.761Z,79.69
2023-11-24T23:23:56.745Z,79.62
2023-11-24T23:26:26.694Z,79.66
2023-11-24T23:28:54.938Z,79.60
2023-11-24T23:31:26.818Z,79.73
2023-11-24T23:33:56.890Z,79.65
2023-11-24T23:36:25.008Z,79.72
2023-11-24T23:38:53.433Z,79.82
2023-11-24T23:41:22.455Z,79.52
2023-11-24T23:43:50.977Z,79.58
2023-11-24T23:46:19.152Z,79.65
2023-11-24T23:49:01.705Z,79.73
2023-11-24T23:51:30.809Z,79.87
2023-11-24T23:53:58.961Z,79.88
2023-11-24T23:56:27.286Z,79.83
2023-11-24T23:58:55.630Z,80.05
